Time;durP1;ratioP1;P1;durP2;ratioP2;P2;SDS_P1;SDS_P2;PMS_P1;PMS_P2;Temp;Humidity;BMP_temperature;BMP_pressure;BME280_temperature;BME280_humidity;BME280_pressure;Samples;Min_cycle;Max_cycle;Signal;HPM_P1;HPM_P2
2022/11/20 00:01:20;;;;;;;16.07;7.97;;;;;;;1.76;100.00;100963.72;1675525;84;21086;-75
2022/11/20 00:03:46;;;;;;;16.32;8.20;;;;;;;1.74;100.00;100971.81;1709055;84;21086;-75
2022/11/20 00:06:17;;;;;;;13.93;7.27;;;;;;;1.75;100.00;100977.98;1710584;83;21580;-74
2022/11/20 00:08:44;;;;;;;12.20;6.80;;;;;;;1.70;100.00;100986.28;1715476;83;21046;-75
2022/11/20 00:11:15;;;;;;;12.40;6.70;;;;;;;1.69;100.00;100973.89;1717999;83;21046;-76
2022/11/20 00:13:44;;;;;;;11.80;6.60;;;;;;;1.68;100.00;100967.70;1694407;84;21059;-76
2022/11/20 00:16:15;;;;;;;13.27;6.77;;;;;;;1.64;100.00;100960.81;1694123;85;21047;-76
2022/11/20 00:18:43;;;;;;;11.20;6.20;;;;;;;1.64;100.00;100967.97;1694503;85;21064;-75
2022/11/20 00:21:18;;;;;;;10.03;5.57;;;;;;;1.65;100.00;100969.22;1697970;84;21116;-76
2022/11/20 00:23:47;;;;;;;12.73;6.23;;;;;;;1.66;100.00;100982.06;1701299;84;21072;-75
2022/11/20 00:26:15;;;;;;;11.60;6.07;;;;;;;1.68;100.00;100997.03;1701239;84;21036;-75
2022/11/20 00:28:42;;;;;;;13.20;6.07;;;;;;;1.66;100.00;101006.06;1701310;84;21055;-75
2022/11/20 00:31:14;;;;;;;12.27;6.03;;;;;;;1.64;100.00;101011.95;1701081;84;21090;-75
2022/11/20 00:33:41;;;;;;;9.80;5.70;;;;;;;1.63;100.00;101006.23;1701281;84;21047;-76
2022/11/20 00:36:11;;;;;;;14.23;6.73;;;;;;;1.64;100.00;100988.81;1701290;84;21087;-75
2022/11/20 00:38:37;;;;;;;13.97;7.23;;;;;;;1.66;100.00;100992.24;1701267;84;21043;-76
2022/11/20 00:41:09;;;;;;;14.73;6.80;;;;;;;1.66;100.00;100992.24;1701278;84;21075;-75
2022/11/20 00:43:36;;;;;;;12.70;6.53;;;;;;;1.66;100.00;100968.73;1701357;84;21028;-76
2022/11/20 00:46:06;;;;;;;12.67;6.53;;;;;;;1.64;100.00;100963.48;1701394;84;21083;-75
2022/11/20 00:48:33;;;;;;;10.90;6.13;;;;;;;1.62;100.00;100950.72;1701358;84;20979;-74
2022/11/20 00:51:00;;;;;;;11.87;6.30;;;;;;;1.63;100.00;100942.24;1700989;84;21552;-76
2022/11/20 00:53:26;;;;;;;10.90;5.97;;;;;;;1.64;100.00;100936.83;1701488;84;21486;-76
2022/11/20 00:56:02;;;;;;;11.87;6.33;;;;;;;1.66;100.00;100937.58;1701329;84;21572;-75
2022/11/20 00:58:35;;;;;;;11.73;5.80;;;;;;;1.67;100.00;100937.12;1663983;86;21010;-75
2022/11/20 01:01:10;;;;;;;13.32;6.80;;;;;;;1.64;100.00;100909.31;1605273;89;21126;-75
2022/11/20 01:03:43;;;;;;;13.43;6.50;;;;;;;1.62;100.00;100896.07;1586650;90;21107;-75
2022/11/20 01:06:20;;;;;;;11.85;6.47;;;;;;;1.59;100.00;100888.25;1586952;90;21661;-76
2022/11/20 01:08:48;;;;;;;12.33;6.50;;;;;;;1.60;100.00;100891.80;1523588;94;21084;-76
2022/11/20 01:11:18;;;;;;;16.67;7.80;;;;;;;1.63;100.00;100903.13;1519424;94;21167;-76
2022/11/20 01:13:46;;;;;;;16.67;8.20;;;;;;;1.65;100.00;100902.56;1528782;94;21100;-75
2022/11/20 01:16:25;;;;;;;19.77;8.57;;;;;;;1.66;100.00;100902.08;1528758;94;21124;-75
2022/11/20 01:18:53;;;;;;;16.20;8.30;;;;;;;1.63;100.00;100906.25;1528555;94;21064;-76
2022/11/20 01:21:23;;;;;;;15.47;7.47;;;;;;;1.60;100.00;100907.80;1528838;94;21530;-75
2022/11/20 01:23:51;;;;;;;17.63;9.17;;;;;;;1.57;100.00;100914.63;1531162;94;21105;-74
2022/11/20 01:26:25;;;;;;;14.70;7.20;;;;;;;1.55;100.00;100908.05;1495508;96;21127;-75
2022/11/20 01:28:53;;;;;;;12.97;6.77;;;;;;;1.54;100.00;100902.81;1537001;93;21100;-76
2022/11/20 01:31:33;;;;;;;14.63;6.47;;;;;;;1.55;100.00;100893.88;1537282;93;21125;-77
2022/11/20 01:34:10;;;;;;;11.57;5.80;;;;;;;1.50;100.00;100868.34;1509604;95;21102;-76
2022/11/20 01:36:37;;;;;;;10.30;5.53;;;;;;;1.43;100.00;100872.32;1434412;99;21125;-76
2022/11/20 01:39:09;;;;;;;11.73;6.13;;;;;;;1.40;100.00;100877.86;1434508;100;21709;-76
2022/11/20 01:44:41;;;;;;;11.67;6.10;;;;;;;1.42;100.00;100886.61;1408820;101;21102;-76
2022/11/20 01:47:08;;;;;;;9.80;5.73;;;;;;;1.45;100.00;100849.12;1397440;103;21136;-75
2022/11/20 01:49:42;;;;;;;10.43;5.47;;;;;;;1.48;100.00;100852.91;1402342;102;21110;-76
2022/11/20 01:52:23;;;;;;;8.77;5.57;;;;;;;1.51;100.00;100867.40;1397562;101;21144;-76
2022/11/20 01:55:07;;;;;;;10.80;5.53;;;;;;;1.54;100.00;100849.50;1415118;99;21124;-77
2022/11/20 01:57:34;;;;;;;10.03;5.77;;;;;;;1.57;100.00;100874.16;1418470;100;21145;-77
2022/11/20 02:00:09;;;;;;;10.73;6.30;;;;;;;1.59;100.00;100862.08;1430498;100;21165;-75
2022/11/20 02:02:46;;;;;;;12.07;6.37;;;;;;;1.55;100.00;100839.23;1369077;104;21178;-76
2022/11/20 02:05:22;;;;;;;;;;;;;;;1.49;100.00;100847.13;1418594;100;21125;-75
2022/11/20 02:07:49;;;;;;;8.43;4.87;;;;;;;1.47;100.00;100853.00;1428320;100;20193;-75
2022/11/20 02:10:15;;;;;;;8.27;4.83;;;;;;;1.42;100.00;100867.95;1406138;102;21142;-76
2022/11/20 02:15:27;;;;;;;8.27;4.97;;;;;;;1.42;100.00;100866.63;1375445;104;21614;-76
2022/11/20 02:17:54;;;;;;;8.70;5.00;;;;;;;1.44;100.00;100859.88;1375454;103;21157;-75
2022/11/20 02:20:21;;;;;;;7.53;4.80;;;;;;;1.46;100.00;100868.63;1375276;104;21160;-76
2022/11/20 02:23:02;;;;;;;8.50;5.00;;;;;;;1.49;100.00;100876.45;1375383;103;21149;-77
2022/11/20 02:25:28;;;;;;;7.30;4.77;;;;;;;1.51;100.00;100882.06;1375420;104;21222;-77
2022/11/20 02:27:55;;;;;;;11.83;6.00;;;;;;;1.51;100.00;100875.39;1375574;104;21153;-77
2022/11/20 02:30:22;;;;;;;9.27;5.57;;;;;;;1.51;100.00;100879.88;1370160;104;21147;-75
2022/11/20 02:32:49;;;;;;;9.90;5.20;;;;;;;1.47;100.00;100899.64;1394693;100;21089;-76
2022/11/20 02:35:25;;;;;;;11.27;5.67;;;;;;;1.47;100.00;100902.31;1446985;98;21126;-75
2022/11/20 02:37:54;;;;;;;11.47;6.03;;;;;;;1.47;100.00;100912.97;1478223;92;21143;-75
2022/11/20 02:40:21;;;;;;;10.03;5.10;;;;;;;1.45;100.00;100893.55;1563018;90;21077;-77
2022/11/20 02:42:56;;;;;;;10.97;6.03;;;;;;;1.41;100.00;100864.90;1562904;92;21101;-77
2022/11/20 02:45:23;;;;;;;9.57;4.93;;;;;;;1.38;100.00;100874.88;1562841;92;21575;-75
2022/11/20 02:47:50;;;;;;;13.67;6.47;;;;;;;1.31;100.00;100868.60;1562794;92;21150;-74
2022/11/20 02:50:18;;;;;;;13.97;6.37;;;;;;;1.24;100.00;100843.28;1638771;86;21150;-76
2022/11/20 02:52:46;;;;;;;12.00;5.67;;;;;;;1.17;100.00;100843.71;1633719;88;21023;-75
2022/11/20 02:55:13;;;;;;;10.10;5.20;;;;;;;1.13;100.00;100833.71;1618049;89;21115;-75
2022/11/20 02:57:40;;;;;;;10.47;5.03;;;;;;;1.12;100.00;100837.34;1618315;89;21031;-75
2022/11/20 03:00:08;;;;;;;10.53;5.10;;;;;;;1.11;100.00;100859.11;1618305;89;21075;-75
2022/11/20 03:02:35;;;;;;;10.57;4.97;;;;;;;1.14;100.00;100851.42;1617919;89;21134;-74
2022/11/20 03:05:02;;;;;;;10.40;5.70;;;;;;;1.16;100.00;100843.34;1629175;84;21055;-74
2022/11/20 03:07:30;;;;;;;9.77;5.47;;;;;;;1.19;100.00;100856.01;1705435;84;21604;-75
2022/11/20 03:09:57;;;;;;;10.77;6.03;;;;;;;1.24;100.00;100861.05;1704873;84;21060;-76
2022/11/20 03:12:23;;;;;;;11.93;5.80;;;;;;;1.25;100.00;100861.44;1705155;84;21056;-76
2022/11/20 03:14:50;;;;;;;14.30;6.57;;;;;;;1.22;100.00;100852.29;1705155;84;21080;-76
2022/11/20 03:17:16;;;;;;;11.10;6.00;;;;;;;1.21;100.00;100847.45;1705126;84;21493;-75
2022/11/20 03:19:44;;;;;;;11.67;6.10;;;;;;;1.22;100.00;100853.63;1705049;84;21036;-74
2022/11/20 03:22:10;;;;;;;13.80;6.43;;;;;;;1.23;100.00;100854.02;1705366;84;20981;-75
2022/11/20 03:24:37;;;;;;;11.27;5.73;;;;;;;1.23;100.00;100857.53;1768404;80;21562;-76
2022/11/20 03:27:03;;;;;;;11.80;5.97;;;;;;;1.25;100.00;100848.97;1781792;80;21006;-75
2022/11/20 03:29:30;;;;;;;12.23;6.03;;;;;;;1.26;100.00;100844.03;1758029;81;21006;-75
2022/11/20 03:31:56;;;;;;;13.70;7.30;;;;;;;1.29;100.00;100834.98;1757851;82;21014;-74
2022/11/20 03:34:23;;;;;;;12.10;5.83;;;;;;;1.30;100.00;100864.20;1757581;82;21109;-75
2022/11/20 03:36:50;;;;;;;14.60;7.53;;;;;;;1.32;100.00;100887.63;1757617;82;21002;-75
2022/11/20 03:39:17;;;;;;;11.63;6.30;;;;;;;1.34;100.00;100895.53;1735182;82;21560;-75
2022/11/20 03:41:44;;;;;;;11.40;5.47;;;;;;;1.36;100.00;100912.28;1757902;82;20962;-75
2022/11/20 03:44:12;;;;;;;9.97;5.60;;;;;;;1.37;100.00;100906.50;1757558;82;21053;-75
2022/11/20 03:46:39;;;;;;;9.87;5.07;;;;;;;1.35;100.00;100905.70;1757600;82;21061;-75
2022/11/20 03:49:06;;;;;;;12.93;5.67;;;;;;;1.35;100.00;100918.58;1757541;82;21046;-75
2022/11/20 03:51:35;;;;;;;13.90;6.10;;;;;;;1.36;100.00;100925.61;1757514;82;21491;-75
2022/11/20 03:54:05;;;;;;;10.83;6.07;;;;;;;1.35;100.00;100916.36;1757568;82;21018;-74
2022/11/20 03:56:36;;;;;;;11.27;5.30;;;;;;;1.32;100.00;100910.76;1757822;82;21032;-75
2022/11/20 03:59:03;;;;;;;12.17;6.43;;;;;;;1.24;100.00;100904.55;1757895;82;21002;-76
2022/11/20 04:01:34;;;;;;;13.83;6.77;;;;;;;1.21;100.00;100899.88;1757173;82;21128;-76
2022/11/20 04:04:00;;;;;;;13.17;6.07;;;;;;;1.16;100.00;100900.63;1738145;82;21105;-76
2022/11/20 04:06:30;;;;;;;11.97;6.57;;;;;;;1.08;100.00;100891.27;1758447;81;21007;-75
2022/11/20 04:08:59;;;;;;;13.20;6.77;;;;;;;1.04;100.00;100888.38;1758628;80;21025;-76
2022/11/20 04:11:29;;;;;;;13.07;6.70;;;;;;;1.05;100.00;100884.78;1758417;82;21502;-76
2022/11/20 04:13:59;;;;;;;14.60;6.57;;;;;;;1.07;100.00;100883.37;1725092;83;21058;-76
2022/11/20 04:16:26;;;;;;;13.67;6.23;;;;;;;1.06;100.00;100877.19;1724782;83;21042;-76
2022/11/20 04:18:55;;;;;;;12.00;6.03;;;;;;;1.08;100.00;100872.62;1725169;83;21034;-76
2022/11/20 04:21:23;;;;;;;11.70;5.70;;;;;;;1.09;100.00;100876.14;1724767;83;21042;-76
2022/11/20 04:23:50;;;;;;;13.60;6.83;;;;;;;1.08;100.00;100862.42;1725064;83;21038;-75
2022/11/20 04:26:19;;;;;;;12.80;6.40;;;;;;;1.08;100.00;100861.09;1724863;83;21064;-75
2022/11/20 04:28:46;;;;;;;11.00;5.77;;;;;;;1.01;100.00;100873.94;1725112;83;21022;-75
2022/11/20 04:31:15;;;;;;;13.07;6.93;;;;;;;0.97;100.00;100876.85;1724968;83;21049;-75
2022/11/20 04:33:43;;;;;;;10.73;6.00;;;;;;;0.94;100.00;100860.11;1724880;83;21065;-76
2022/11/20 04:36:17;;;;;;;13.83;6.13;;;;;;;0.93;100.00;100854.38;1724800;83;21010;-75
2022/11/20 04:38:44;;;;;;;11.93;5.63;;;;;;;0.92;100.00;100842.03;1724715;83;21077;-75
2022/11/20 04:41:15;;;;;;;13.97;6.90;;;;;;;0.90;100.00;100821.75;1725156;83;21578;-74
2022/11/20 04:43:41;;;;;;;11.17;5.30;;;;;;;0.89;100.00;100816.06;1725378;83;21073;-75
2022/11/20 04:46:08;;;;;;;10.03;5.47;;;;;;;0.88;100.00;100836.97;1725141;83;21057;-75
2022/11/20 04:48:35;;;;;;;10.47;5.00;;;;;;;0.86;100.00;100860.17;1725089;83;21487;-76
2022/11/20 04:51:05;;;;;;;10.23;5.60;;;;;;;0.85;100.00;100873.97;1724780;83;21093;-76
2022/11/20 04:53:32;;;;;;;13.43;6.50;;;;;;;0.81;100.00;100857.76;1725222;83;21010;-77
2022/11/20 04:56:05;;;;;;;12.07;6.17;;;;;;;0.76;100.00;100853.16;1724888;83;21102;-77
2022/11/20 04:58:31;;;;;;;12.67;6.70;;;;;;;0.71;100.00;100849.45;1724877;83;21097;-75
2022/11/20 05:01:06;;;;;;;14.83;7.00;;;;;;;0.64;100.00;100854.75;1724752;83;21074;-75
2022/11/20 05:03:33;;;;;;;13.30;6.70;;;;;;;0.61;100.00;100854.91;1723501;83;21568;-77
2022/11/20 05:06:03;;;;;;;12.77;6.17;;;;;;;0.57;100.00;100850.72;1726241;83;21519;-76
2022/11/20 05:08:30;;;;;;;12.77;6.77;;;;;;;0.53;100.00;100870.45;1726135;83;21594;-76
2022/11/20 05:11:04;;;;;;;15.13;7.13;;;;;;;0.53;100.00;100877.10;1736920;82;21039;-76
2022/11/20 05:13:31;;;;;;;13.57;6.70;;;;;;;0.52;100.00;100884.72;1733984;83;21027;-76
2022/11/20 05:16:08;;;;;;;13.80;6.83;;;;;;;0.50;100.00;100891.94;1733938;83;21537;-74
2022/11/20 05:18:35;;;;;;;16.53;7.70;;;;;;;0.48;100.00;100885.36;1734057;83;21019;-76
2022/11/20 05:21:03;;;;;;;11.50;6.00;;;;;;;0.48;100.00;100901.78;1733890;83;21042;-76
2022/11/20 05:23:32;;;;;;;15.90;6.07;;;;;;;0.49;100.00;100916.33;1733930;83;21062;-75
2022/11/20 05:25:59;;;;;;;13.87;6.73;;;;;;;0.53;100.00;100918.35;1734072;83;21050;-76
2022/11/20 05:28:27;;;;;;;13.97;7.43;;;;;;;0.54;100.00;100924.92;1734041;83;21492;-76
2022/11/20 05:30:54;;;;;;;14.43;6.73;;;;;;;0.47;100.00;100932.02;1733941;83;21051;-77
2022/11/20 05:33:21;;;;;;;16.63;8.17;;;;;;;0.39;100.00;100924.46;1733911;83;21059;-76
2022/11/20 05:35:48;;;;;;;11.77;6.23;;;;;;;0.34;100.00;100922.04;1734280;83;21063;-77
2022/11/20 05:38:15;;;;;;;14.47;6.93;;;;;;;0.33;100.00;100920.79;1734074;83;21063;-77
2022/11/20 05:40:43;;;;;;;13.30;7.43;;;;;;;0.31;100.00;100906.72;1733878;83;21095;-76
2022/11/20 05:43:10;;;;;;;15.07;7.40;;;;;;;0.25;100.00;100896.39;1733992;83;21599;-76
2022/11/20 05:45:38;;;;;;;16.63;7.80;;;;;;;0.22;100.00;100915.20;1734128;83;21545;-76
2022/11/20 05:48:04;;;;;;;14.60;7.70;;;;;;;0.22;100.00;100912.55;1734165;83;21079;-78
2022/11/20 05:50:31;;;;;;;16.87;8.87;;;;;;;0.21;100.00;100914.33;1734194;83;21533;-76
2022/11/20 05:52:59;;;;;;;17.63;8.60;;;;;;;0.16;100.00;100905.73;1734062;83;21051;-75
2022/11/20 05:55:27;;;;;;;16.40;8.33;;;;;;;0.11;100.00;100896.69;1734145;83;21043;-75
2022/11/20 05:57:54;;;;;;;15.37;7.37;;;;;;;0.04;100.00;100895.31;1734049;83;21083;-76
2022/11/20 06:00:21;;;;;;;15.13;7.30;;;;;;;-0.02;100.00;100901.81;1734122;83;21082;-75
2022/11/20 06:02:49;;;;;;;17.23;7.97;;;;;;;-0.05;100.00;100903.30;1735850;82;21619;-76
2022/11/20 06:05:17;;;;;;;16.43;8.17;;;;;;;-0.07;100.00;100901.20;1739795;82;21031;-76
2022/11/20 06:07:47;;;;;;;16.67;7.67;;;;;;;-0.07;100.00;100901.20;1739574;82;21042;-77
2022/11/20 06:10:16;;;;;;;18.07;8.63;;;;;;;-0.07;100.00;100902.98;1722475;82;21046;-77
2022/11/20 06:12:43;;;;;;;15.50;7.40;;;;;;;-0.07;100.00;100917.16;1710116;83;21034;-75
2022/11/20 06:15:12;;;;;;;16.17;7.63;;;;;;;-0.07;100.00;100933.55;1710401;84;21464;-77
2022/11/20 06:17:40;;;;;;;15.37;7.53;;;;;;;-0.06;100.00;100928.64;1709959;83;21078;-76
2022/11/20 06:20:09;;;;;;;16.03;8.27;;;;;;;-0.07;100.00;100930.45;1709819;83;21042;-75
2022/11/20 06:22:37;;;;;;;14.57;6.50;;;;;;;-0.06;100.00;100940.12;1709928;84;21040;-76
2022/11/20 06:25:04;;;;;;;14.47;7.20;;;;;;;-0.06;100.00;100949.43;1710232;83;21057;-76
2022/11/20 06:27:32;;;;;;;13.10;6.57;;;;;;;-0.03;100.00;100949.28;1709958;83;21547;-76
2022/11/20 06:29:59;;;;;;;13.00;6.73;;;;;;;0.02;100.00;100953.04;1710072;84;21038;-76
2022/11/20 06:32:26;;;;;;;14.93;7.57;;;;;;;0.02;100.00;100974.31;1710192;84;21010;-76
2022/11/20 06:34:52;;;;;;;13.50;6.77;;;;;;;0.02;100.00;100982.73;1710186;84;20991;-77
2022/11/20 06:37:21;;;;;;;14.50;7.20;;;;;;;0.02;100.00;100959.69;1709947;83;21055;-77
2022/11/20 06:39:47;;;;;;;14.80;7.10;;;;;;;0.04;100.00;100939.66;1709780;83;21050;-76
2022/11/20 06:42:14;;;;;;;14.70;7.10;;;;;;;0.05;100.00;100939.55;1709945;84;21043;-77
2022/11/20 06:44:41;;;;;;;13.33;6.13;;;;;;;0.06;100.00;100935.12;1709977;83;21062;-75
2022/11/20 06:47:08;;;;;;;13.67;6.90;;;;;;;0.07;100.00;100923.07;1710115;83;21058;-77
2022/11/20 06:49:36;;;;;;;15.07;7.40;;;;;;;0.10;100.00;100905.59;1709916;84;21102;-76
2022/11/20 06:52:04;;;;;;;13.50;6.83;;;;;;;0.14;100.00;100914.27;1709910;83;21536;-77
2022/11/20 06:54:31;;;;;;;16.30;7.60;;;;;;;0.19;100.00;100913.55;1710240;84;21535;-74
2022/11/20 06:56:58;;;;;;;15.73;7.47;;;;;;;0.16;100.00;100903.95;1710177;83;21054;-76
2022/11/20 06:59:24;;;;;;;16.30;7.90;;;;;;;0.12;100.00;100903.70;1709990;83;21023;-76
2022/11/20 07:01:51;;;;;;;15.53;7.43;;;;;;;0.08;100.00;100924.77;1710256;84;21082;-76
2022/11/20 07:04:18;;;;;;;17.80;8.50;;;;;;;0.06;100.00;100941.28;1760354;81;21471;-75
2022/11/20 07:06:45;;;;;;;20.93;9.80;;;;;;;0.05;100.00;100945.35;1768840;81;21546;-76
2022/11/20 10:13:22;;;;;;;21.07;9.68;;;;;;;0.85;100.00;100730.18;1742557;82;21655;-77
2022/11/20 10:16:02;;;;;;;18.67;9.07;;;;;;;0.82;100.00;100717.53;1761491;81;21069;-76
2022/11/20 10:19:06;;;;;;;20.57;10.40;;;;;;;0.82;100.00;100712.20;1762796;81;21558;-76
2022/11/20 10:22:03;;;;;;;22.33;10.50;;;;;;;0.82;100.00;100723.70;1781544;80;21007;-75
2022/11/20 10:25:04;;;;;;;18.27;7.97;;;;;;;0.82;100.00;100737.50;1768598;81;21037;-77
2022/11/20 10:28:25;;;;;;;20.23;8.97;;;;;;;0.82;100.00;100754.80;1768337;81;21056;-76
2022/11/20 10:31:06;;;;;;;19.80;8.90;;;;;;;0.84;100.00;100743.58;1768132;81;21006;-73
2022/11/20 10:33:39;;;;;;;18.73;9.37;;;;;;;0.83;100.00;100690.78;1735731;83;21529;-73
2022/11/20 10:36:22;;;;;;;15.77;7.50;;;;;;;0.84;100.00;100677.86;1735976;83;21540;-72
2022/11/20 10:39:19;;;;;;;15.88;7.22;;;;;;;0.83;100.00;100672.14;1734715;83;21169;-73
2022/11/20 10:41:48;;;;;;;14.40;7.17;;;;;;;0.85;100.00;100656.96;1735062;83;21502;-72
2022/11/20 10:47:17;;;;;;;15.07;7.20;;;;;;;0.90;100.00;100661.53;1735023;83;21081;-74
2022/11/20 10:49:48;;;;;;;13.00;6.50;;;;;;;0.93;100.00;100662.66;1704573;84;21036;-74
2022/11/20 10:53:03;;;;;;;18.00;8.53;;;;;;;0.95;100.00;100674.55;1735343;83;21041;-74
2022/11/20 10:55:53;;;;;;;18.87;8.67;;;;;;;0.97;100.00;100672.64;1735255;83;21033;-74
2022/11/20 10:58:59;;;;;;;23.17;9.83;;;;;;;0.97;100.00;100661.98;1735323;83;21085;-75
2022/11/20 11:01:26;;;;;;;17.20;8.10;;;;;;;0.97;100.00;100633.18;1704812;84;21081;-74
2022/11/20 11:03:54;;;;;;;15.20;7.30;;;;;;;0.95;100.00;100625.28;1735225;83;21541;-74
2022/11/20 11:06:35;;;;;;;17.17;8.43;;;;;;;0.95;100.00;100632.78;1704552;84;20985;-76
2022/11/20 11:09:13;;;;;;;20.63;10.10;;;;;;;0.96;100.00;100664.29;1704270;84;21057;-75
2022/11/20 11:11:41;;;;;;;19.70;9.30;;;;;;;0.99;100.00;100692.52;1651930;87;21550;-73
2022/11/20 11:14:14;;;;;;;17.90;8.63;;;;;;;1.01;100.00;100673.31;1650847;87;21208;-74
2022/11/20 11:16:54;;;;;;;19.60;9.67;;;;;;;1.00;100.00;100652.48;1644451;87;21054;-74
2022/11/20 11:19:20;;;;;;;16.20;7.70;;;;;;;1.01;100.00;100625.37;1638836;87;21032;-74
2022/11/20 11:21:53;;;;;;;18.67;9.13;;;;;;;1.00;100.00;100633.00;1642556;87;21116;-74
2022/11/20 11:24:27;;;;;;;16.97;7.65;;;;;;;0.99;100.00;100642.77;1664358;86;21479;-74
2022/11/20 11:27:06;;;;;;;24.57;9.17;;;;;;;0.98;100.00;100638.41;1635926;87;21073;-73
2022/11/20 11:29:34;;;;;;;20.00;8.93;;;;;;;0.99;100.00;100604.64;1616063;88;21014;-74
2022/11/20 11:32:07;;;;;;;15.27;7.43;;;;;;;0.99;100.00;100609.97;1603404;89;21138;-73
2022/11/20 11:34:34;;;;;;;15.95;7.22;;;;;;;0.98;100.00;100625.59;1561383;92;21076;-74
2022/11/20 11:37:03;;;;;;;16.47;7.33;;;;;;;0.97;100.00;100613.20;1612129;89;21172;-73
2022/11/20 11:39:31;;;;;;;18.33;8.77;;;;;;;0.96;100.00;100619.02;1591902;90;21133;-73
2022/11/20 11:41:59;;;;;;;17.77;7.83;;;;;;;0.98;100.00;100634.91;1585776;90;21105;-74
2022/11/20 11:47:28;;;;;;;17.60;7.70;;;;;;;1.00;100.00;100620.53;1585537;90;21093;-75
2022/11/20 11:50:16;;;;;;;17.20;7.77;;;;;;;1.00;100.00;100587.23;1591837;90;21133;-73
2022/11/20 11:53:21;;;;;;;19.27;8.13;;;;;;;1.00;100.00;100615.69;1591642;90;21125;-73
2022/11/20 11:56:06;;;;;;;20.40;7.70;;;;;;;0.98;100.00;100610.45;1591844;90;21089;-74
2022/11/20 11:58:50;;;;;;;21.10;7.90;;;;;;;0.94;100.00;100605.80;1566101;92;21133;-73
2022/11/20 12:01:40;;;;;;;16.73;7.03;;;;;;;0.93;100.00;100609.87;1587888;90;21065;-73
2022/11/20 12:04:29;;;;;;;17.60;7.57;;;;;;;0.91;100.00;100616.63;1566109;92;21112;-74
2022/11/20 12:07:03;;;;;;;16.87;7.83;;;;;;;0.93;100.00;100616.05;1588641;89;21565;-73
2022/11/20 12:09:39;;;;;;;15.70;7.07;;;;;;;0.95;100.00;100617.30;1606802;88;21578;-73
2022/11/20 12:12:14;;;;;;;16.77;6.73;;;;;;;0.95;100.00;100615.96;1508335;95;21531;-75
2022/11/20 12:14:46;;;;;;;16.37;7.27;;;;;;;0.98;100.00;100633.57;1508181;95;21148;-74
2022/11/20 12:17:17;;;;;;;16.23;7.67;;;;;;;0.98;100.00;100627.77;1508653;95;21104;-74
2022/11/20 12:19:44;;;;;;;14.63;7.13;;;;;;;0.97;100.00;100620.71;1508659;95;21177;-74
2022/11/20 12:22:53;;;;;;;12.70;6.60;;;;;;;0.99;100.00;100615.30;1508742;95;21125;-74
2022/11/20 12:25:33;;;;;;;15.93;6.93;;;;;;;0.98;100.00;100615.78;1491922;96;21153;-72
2022/11/20 12:28:15;;;;;;;14.33;5.67;;;;;;;0.94;100.00;100591.15;1451100;98;21682;-73
2022/11/20 12:31:02;;;;;;;14.13;6.30;;;;;;;0.93;100.00;100604.55;1463952;94;21093;-73
2022/11/20 12:33:54;;;;;;;13.70;5.97;;;;;;;0.94;100.00;100612.45;1517230;94;21202;-73
2022/11/20 12:36:49;;;;;;;11.90;5.50;;;;;;;0.97;100.00;100611.39;1519897;93;21109;-72
2022/11/20 12:39:38;;;;;;;12.00;6.00;;;;;;;1.00;100.00;100601.04;1520469;94;21619;-74
2022/11/20 12:45:21;;;;;;;13.03;5.77;;;;;;;0.99;100.00;100591.33;1466183;98;21087;-72
2022/11/20 12:48:13;;;;;;;12.33;5.63;;;;;;;0.98;100.00;100578.98;1448215;98;21174;-72
2022/11/20 12:51:01;;;;;;;11.93;5.67;;;;;;;0.97;100.00;100584.76;1445371;99;21133;-75
2022/11/20 12:53:46;;;;;;;12.33;5.73;;;;;;;0.95;100.00;100582.19;1488838;94;21139;-75
2022/11/20 12:56:39;;;;;;;11.83;6.23;;;;;;;0.95;100.00;100561.38;1502696;95;21093;-74
2022/11/20 12:59:37;;;;;;;11.75;5.80;;;;;;;0.95;100.00;100558.70;1450112;99;21135;-74
2022/11/20 13:02:43;;;;;;;12.50;5.67;;;;;;;0.96;100.00;100547.12;1452639;99;21587;-75
2022/11/20 13:05:41;;;;;;;12.37;5.93;;;;;;;0.94;100.00;100545.03;1452474;99;21162;-73
2022/11/20 13:08:28;;;;;;;12.77;6.07;;;;;;;0.93;100.00;100533.98;1455311;97;21731;-73
2022/11/20 13:11:25;;;;;;;11.80;5.90;;;;;;;0.94;100.00;100540.55;1493964;96;21108;-74
2022/11/20 13:14:13;;;;;;;10.40;5.43;;;;;;;0.92;100.00;100538.92;1515359;94;21096;-74
2022/11/20 13:17:07;;;;;;;12.63;5.23;;;;;;;0.89;100.00;100552.45;1563918;91;21173;-74
2022/11/20 13:19:36;;;;;;;12.57;5.17;;;;;;;0.86;100.00;100541.50;1564888;92;21099;-74
2022/11/20 13:22:02;;;;;;;11.07;5.20;;;;;;;0.85;100.00;100517.63;1565221;92;21110;-76
2022/11/20 13:24:31;;;;;;;13.03;5.37;;;;;;;0.85;100.00;100530.95;1565994;92;21084;-75
2022/11/20 13:27:14;;;;;;;10.70;5.33;;;;;;;0.83;100.00;100533.70;1565911;92;21145;-73
2022/11/20 13:29:44;;;;;;;9.38;4.90;;;;;;;0.84;100.00;100531.91;1566431;92;21096;-75
2022/11/20 13:32:17;;;;;;;11.20;4.83;;;;;;;0.85;100.00;100518.97;1567003;90;21547;-74
2022/11/20 13:34:57;;;;;;;8.30;4.85;;;;;;;0.85;100.00;100512.31;1593864;90;21025;-74
2022/11/20 13:37:33;;;;;;;9.40;5.17;;;;;;;0.85;100.00;100505.66;1562609;90;21113;-74
2022/11/20 13:40:13;;;;;;;9.33;4.73;;;;;;;0.84;100.00;100499.48;1562914;92;21262;-74
2022/11/20 13:42:48;;;;;;;12.63;4.93;;;;;;;0.86;100.00;100489.58;1563929;92;21581;-73
2022/11/20 13:45:31;;;;;;;14.80;6.00;;;;;;;0.86;100.00;100480.75;1561635;92;21120;-73
2022/11/20 13:48:06;;;;;;;10.78;5.10;;;;;;;0.87;100.00;100471.83;1564100;91;21103;-73
2022/11/20 13:50:42;;;;;;;12.80;4.97;;;;;;;0.86;100.00;100482.92;1536254;92;21095;-74
2022/11/20 13:53:40;;;;;;;8.77;4.43;;;;;;;0.85;100.00;100496.33;1539260;93;21137;-74
2022/11/20 13:56:22;;;;;;;6.07;4.13;;;;;;;0.85;100.00;100512.31;1566629;90;21133;-73
2022/11/20 13:59:45;;;;;;;9.73;4.87;;;;;;;0.82;100.00;100517.36;1517783;95;21583;-73
2022/11/20 14:02:16;;;;;;;6.83;4.20;;;;;;;0.81;100.00;100499.66;1497338;95;21252;-73
2022/11/20 14:04:48;;;;;;;7.80;4.40;;;;;;;0.79;100.00;100488.27;1539226;91;21156;-73
2022/11/20 14:07:16;;;;;;;9.37;4.63;;;;;;;0.80;100.00;100478.01;1517948;93;21073;-73
2022/11/20 14:09:55;;;;;;;9.07;4.57;;;;;;;0.81;100.00;100474.86;1539112;92;21065;-74
2022/11/20 14:12:30;;;;;;;8.90;5.17;;;;;;;0.84;100.00;100457.37;1491144;93;21152;-74
2022/11/20 14:14:58;;;;;;;9.13;4.63;;;;;;;0.85;100.00;100448.41;1489386;96;21555;-74
2022/11/20 14:17:34;;;;;;;8.77;4.50;;;;;;;0.87;100.00;100451.86;1479543;97;21114;-74
2022/11/20 14:20:05;;;;;;;11.13;4.63;;;;;;;0.90;100.00;100444.98;1479336;95;21181;-75
2022/11/20 14:22:33;;;;;;;9.63;4.73;;;;;;;0.92;100.00;100452.38;1479522;97;21062;-76
2022/11/20 14:25:17;;;;;;;10.50;4.83;;;;;;;0.93;100.00;100460.28;1479323;97;21139;-74
2022/11/20 14:27:57;;;;;;;10.67;5.07;;;;;;;0.95;100.00;100450.86;1469980;97;21123;-74
2022/11/20 14:30:30;;;;;;;10.57;5.13;;;;;;;0.95;100.00;100438.39;1428825;100;21576;-76
2022/11/20 14:33:02;;;;;;;9.37;4.47;;;;;;;0.97;100.00;100445.44;1416732;99;21248;-74
2022/11/20 14:35:39;;;;;;;11.03;5.00;;;;;;;0.99;100.00;100450.19;1376522;103;21114;-75
2022/11/20 14:38:09;;;;;;;9.83;4.80;;;;;;;1.02;100.00;100453.50;1392481;102;21608;-74
2022/11/20 14:40:37;;;;;;;11.70;5.40;;;;;;;1.06;100.00;100456.82;1392530;103;21168;-74
2022/11/20 14:43:23;;;;;;;11.83;5.03;;;;;;;1.08;100.00;100458.91;1392356;102;21584;-74
2022/11/20 14:45:59;;;;;;;8.33;4.23;;;;;;;1.10;100.00;100450.36;1392493;102;21155;-76
2022/11/20 14:48:47;;;;;;;8.47;5.03;;;;;;;1.11;100.00;100447.57;1469875;96;21094;-76
2022/11/20 14:51:41;;;;;;;8.90;4.67;;;;;;;1.15;100.00;100445.56;1499776;96;21091;-76
2022/11/20 14:54:18;;;;;;;11.93;5.10;;;;;;;1.18;100.00;100434.70;1499849;96;21156;-76
2022/11/20 14:57:01;;;;;;;15.37;5.23;;;;;;;1.19;100.00;100431.11;1499905;96;21072;-73
2022/11/20 14:59:31;;;;;;;10.93;5.60;;;;;;;1.20;100.00;100434.13;1468664;98;21109;-75
2022/11/20 15:02:09;;;;;;;9.20;4.90;;;;;;;1.20;100.00;100426.13;1470914;98;21151;-76
2022/11/20 15:04:51;;;;;;;11.47;5.50;;;;;;;1.21;100.00;100410.54;1410173;101;21161;-74